Time;durP1;ratioP1;P1;durP2;ratioP2;P2;SDS_P1;SDS_P2;PMS_P1;PMS_P2;Temp;Humidity;BMP_temperature;BMP_pressure;BME280_temperature;BME280_humidity;BME280_pressure;Samples;Min_cycle;Max_cycle;Signal;HPM_P1;HPM_P2
2021/05/06 00:07:27;;;;;;;4.90;1.90;;;8.10;96.60;;;;;;5074839;28;21644;-87
2021/05/06 00:10:21;;;;;;;2.83;1.53;;;8.10;97.50;;;;;;5039110;28;20465;-87
2021/05/06 00:32:10;;;;;;;3.13;2.03;;;7.80;97.40;;;;;;5028424;28;20447;-87
2021/05/06 00:34:36;;;;;;;3.30;2.17;;;7.80;97.30;;;;;;5053340;28;20885;-86
2021/05/06 00:37:04;;;;;;;3.33;1.87;;;7.90;97.20;;;;;;5060686;28;20484;-85
2021/05/06 00:39:33;;;;;;;2.10;1.67;;;7.90;97.00;;;;;;5064540;28;20453;-86
2021/05/06 00:42:09;;;;;;;2.10;1.57;;;7.90;96.80;;;;;;5044915;28;20481;-86
2021/05/06 00:55:57;;;;;;;3.33;1.70;;;8.00;95.90;;;;;;5041391;28;20964;-86
2021/05/06 01:01:24;;;;;;;3.63;2.40;;;8.00;96.20;;;;;;5043370;28;20563;-87
2021/05/06 01:04:07;;;;;;;1.60;1.37;;;8.00;95.90;;;;;;5065479;28;20456;-86
2021/05/06 01:06:41;;;;;;;2.27;1.77;;;8.10;95.40;;;;;;5063668;28;20472;-86
2021/05/06 01:09:11;;;;;;;2.87;2.27;;;8.10;95.40;;;;;;5061161;28;20459;-86
2021/05/06 01:11:42;;;;;;;2.97;2.17;;;8.10;95.50;;;;;;5065027;28;20440;-86
2021/05/06 01:14:10;;;;;;;5.80;2.17;;;8.10;95.40;;;;;;5052660;28;20472;-86
2021/05/06 01:16:37;;;;;;;2.43;1.77;;;8.10;95.60;;;;;;5037265;28;20473;-87
2021/05/06 01:19:04;;;;;;;4.93;2.20;;;8.10;95.50;;;;;;5037993;28;20460;-86
2021/05/06 01:21:31;;;;;;;2.83;1.80;;;8.10;95.90;;;;;;5038395;28;20472;-87
2021/05/06 01:23:58;;;;;;;1.97;1.87;;;8.10;95.60;;;;;;5041116;28;20535;-87
2021/05/06 01:26:32;;;;;;;4.40;1.93;;;8.10;95.00;;;;;;5056307;28;20445;-86
2021/05/06 01:29:01;;;;;;;4.47;2.60;;;8.20;95.50;;;;;;5068017;28;20511;-86
2021/05/06 01:31:31;;;;;;;3.53;2.17;;;8.20;95.10;;;;;;5069538;28;21027;-87
2021/05/06 01:34:05;;;;;;;2.30;2.10;;;8.20;95.00;;;;;;5053601;28;20451;-85
2021/05/06 01:36:36;;;;;;;2.67;1.83;;;8.20;95.00;;;;;;5038462;28;20559;-86
2021/05/06 01:39:20;;;;;;;6.47;2.13;;;8.20;95.10;;;;;;5045309;28;20491;-86
2021/05/06 01:41:53;;;;;;;2.00;1.80;;;8.20;95.30;;;;;;5037348;28;20508;-87
2021/05/06 01:44:35;;;;;;;2.83;2.63;;;8.10;95.70;;;;;;5040881;28;20445;-87
2021/05/06 01:47:14;;;;;;;5.90;2.60;;;8.20;95.90;;;;;;5056422;28;20484;-87
2021/05/06 02:00:44;;;;;;;4.20;1.90;;;8.10;95.60;;;;;;5026807;28;20495;-87
2021/05/06 02:03:10;;;;;;;3.73;2.10;;;8.20;95.30;;;;;;5037026;28;20457;-86
2021/05/06 02:05:36;;;;;;;5.23;2.20;;;8.20;94.90;;;;;;5035822;28;20852;-87
2021/05/06 02:08:04;;;;;;;2.03;1.70;;;8.20;94.90;;;;;;5057054;28;20438;-86
2021/05/06 02:10:30;;;;;;;4.33;1.87;;;8.20;94.60;;;;;;5057294;28;20508;-86
2021/05/06 02:12:56;;;;;;;4.53;2.03;;;8.30;94.30;;;;;;5050265;28;20453;-86
2021/05/06 02:15:25;;;;;;;3.10;2.80;;;8.30;94.60;;;;;;5050092;28;20464;-87
2021/05/06 02:17:52;;;;;;;5.63;2.33;;;8.30;94.80;;;;;;5056090;28;20452;-87
2021/05/06 02:20:18;;;;;;;4.77;2.27;;;8.30;94.20;;;;;;5063852;28;20452;-86
2021/05/06 02:22:46;;;;;;;2.13;1.93;;;8.30;94.50;;;;;;5071861;28;20447;-86
2021/05/06 02:25:14;;;;;;;3.43;1.90;;;8.30;94.50;;;;;;5053298;28;20454;-86
2021/05/06 02:27:40;;;;;;;2.60;2.20;;;8.30;94.10;;;;;;5034838;28;20460;-87
2021/05/06 02:30:08;;;;;;;2.80;2.10;;;8.30;94.00;;;;;;5036965;28;20464;-87
2021/05/06 02:32:35;;;;;;;2.83;2.43;;;8.40;94.30;;;;;;5041273;28;20445;-86
2021/05/06 02:35:01;;;;;;;2.60;2.20;;;8.40;93.60;;;;;;5050289;28;20448;-87
2021/05/06 02:37:27;;;;;;;3.20;2.33;;;8.30;93.30;;;;;;5055261;28;20453;-86
2021/05/06 02:39:54;;;;;;;3.40;2.23;;;8.30;93.80;;;;;;5065979;28;20435;-86
2021/05/06 02:42:22;;;;;;;4.43;2.23;;;8.30;93.40;;;;;;5067456;28;20484;-86
2021/05/06 02:44:48;;;;;;;3.60;2.27;;;8.40;93.40;;;;;;5054278;28;20444;-86
2021/05/06 02:47:14;;;;;;;5.07;2.70;;;8.40;93.00;;;;;;5062626;28;20468;-87
2021/05/06 02:49:44;;;;;;;3.37;2.30;;;8.50;93.10;;;;;;5078179;28;20432;-85
2021/05/06 02:52:14;;;;;;;2.50;2.00;;;8.50;93.00;;;;;;5066094;28;20448;-86
2021/05/06 02:54:43;;;;;;;2.60;2.40;;;8.50;93.10;;;;;;5051678;28;20548;-86
2021/05/06 02:57:16;;;;;;;4.70;2.70;;;8.50;93.30;;;;;;5041799;28;20504;-86
2021/05/06 03:02:49;;;;;;;3.43;2.43;;;8.40;93.70;;;;;;5037946;28;20472;-86
2021/05/06 03:05:17;;;;;;;8.73;2.47;;;8.40;93.80;;;;;;5051639;28;20555;-85
2021/05/06 03:07:47;;;;;;;6.63;3.00;;;8.40;94.10;;;;;;5054350;28;20448;-85
2021/05/06 03:10:22;;;;;;;3.40;2.70;;;8.40;94.10;;;;;;5054590;28;20456;-86
2021/05/06 03:13:21;;;;;;;3.30;2.13;;;8.40;94.40;;;;;;5054668;28;20483;-87
2021/05/06 03:24:05;;;;;;;3.27;2.40;;;8.20;95.30;;;;;;5002046;28;20505;-86
2021/05/06 03:26:32;;;;;;;2.67;2.20;;;8.20;95.90;;;;;;5054191;28;21185;-86
2021/05/06 03:29:01;;;;;;;4.27;3.03;;;8.10;95.90;;;;;;5052802;28;20480;-87
2021/05/06 03:31:51;;;;;;;5.90;2.40;;;8.10;97.20;;;;;;5053272;28;20436;-86
2021/05/06 03:42:35;;;;;;;10.93;3.13;;;7.60;99.60;;;;;;5034084;28;20550;-87
2021/05/06 03:45:15;;;;;;;4.73;2.80;;;7.50;99.90;;;;;;5046645;28;20459;-86
2021/05/06 04:18:07;;;;;;;3.80;3.00;;;7.30;99.90;;;;;;5063478;28;20862;-86
2021/05/06 04:26:11;;;;;;;3.67;2.70;;;7.20;99.90;;;;;;5053296;22;21023;-88
2021/05/06 04:37:02;;;;;;;5.07;3.20;;;7.40;99.90;;;;;;5039949;28;20992;-89
2021/05/06 04:39:36;;;;;;;3.77;2.47;;;7.40;99.90;;;;;;5036889;28;20450;-90
2021/05/06 04:53:27;;;;;;;6.10;3.20;;;7.50;99.90;;;;;;5038321;28;20584;-88
2021/05/06 04:53:32;;;;;;;4.43;2.80;;;7.60;99.90;;;;;;5037627;28;20579;-89
2021/05/06 04:56:05;;;;;;;2.73;2.53;;;7.80;99.90;;;;;;5038841;28;20473;-89
2021/05/06 04:59:17;;;;;;;3.13;2.20;;;7.90;99.90;;;;;;5037071;28;20462;-87
2021/05/06 05:04:31;;;;;;;5.03;3.13;;;8.30;99.90;;;;;;5060755;28;20444;-89
2021/05/06 05:07:07;;;;;;;5.00;2.50;;;8.50;99.90;;;;;;5053057;28;20845;-89
2021/05/06 05:18:24;;;;;;;5.20;3.23;;;9.00;99.90;;;;;;5039784;28;20454;-89
2021/05/06 05:21:18;;;;;;;3.40;2.80;;;9.00;99.50;;;;;;5048480;28;20844;-89
2021/05/06 05:23:45;;;;;;;3.20;2.50;;;9.00;99.60;;;;;;5049669;28;20456;-88
2021/05/06 05:26:13;;;;;;;4.10;2.70;;;9.10;99.70;;;;;;5047989;28;20471;-88
2021/05/06 05:28:40;;;;;;;3.40;2.43;;;9.20;99.10;;;;;;5046842;28;20527;-87
2021/05/06 05:31:07;;;;;;;2.57;2.37;;;9.10;98.70;;;;;;5052091;28;20563;-88
2021/05/06 05:33:37;;;;;;;5.63;2.43;;;9.10;99.20;;;;;;5048290;28;20954;-88
2021/05/06 05:36:13;;;;;;;3.43;2.87;;;9.00;98.90;;;;;;5046053;28;20461;-88
2021/05/06 05:38:50;;;;;;;5.13;3.30;;;9.00;98.80;;;;;;5043906;28;20460;-88
2021/05/06 05:57:43;;;;;;;6.30;4.73;;;9.20;99.20;;;;;;4955071;29;20472;-88
2021/05/06 06:00:33;;;;;;;4.17;3.77;;;9.20;99.00;;;;;;5053037;28;20444;-88
2021/05/06 06:06:35;;;;;;;8.07;3.87;;;9.00;99.40;;;;;;5051275;28;20528;-89
2021/05/06 06:12:53;;;;;;;5.00;2.80;;;9.00;99.90;;;;;;5064538;28;20438;-87
2021/05/06 06:16:10;;;;;;;5.83;3.40;;;9.00;99.90;;;;;;5060105;28;20978;-89
2021/05/06 06:19:13;;;;;;;8.13;3.33;;;9.00;99.80;;;;;;5060995;28;20476;-88
2021/05/06 06:22:14;;;;;;;5.47;3.00;;;9.00;99.50;;;;;;5051156;28;20570;-89
2021/05/06 06:25:14;;;;;;;5.17;2.20;;;8.90;98.70;;;;;;5057779;28;20445;-88
2021/05/06 06:28:02;;;;;;;4.53;2.60;;;8.80;97.90;;;;;;5065904;28;20432;-88
2021/05/06 06:30:44;;;;;;;5.00;3.10;;;8.80;98.30;;;;;;5056743;28;20450;-87
2021/05/06 06:33:15;;;;;;;4.00;2.23;;;8.80;98.70;;;;;;5059976;28;20418;-87
2021/05/06 06:36:00;;;;;;;2.83;2.37;;;8.80;98.60;;;;;;5070020;28;20456;-88
2021/05/06 06:38:39;;;;;;;5.27;3.00;;;8.80;98.90;;;;;;5056995;28;20491;-88
2021/05/06 06:41:17;;;;;;;4.20;2.33;;;8.70;99.20;;;;;;5054955;28;20465;-88
2021/05/06 06:43:51;;;;;;;5.93;2.83;;;8.80;98.90;;;;;;5052981;28;20503;-88
2021/05/06 06:47:03;;;;;;;5.20;2.60;;;8.80;99.30;;;;;;5045714;28;20889;-87
2021/05/06 06:49:31;;;;;;;5.23;2.30;;;8.80;99.10;;;;;;5041133;28;20502;-88
2021/05/06 06:51:58;;;;;;;2.67;2.17;;;8.90;98.90;;;;;;5044891;28;20518;-88
2021/05/06 06:54:31;;;;;;;7.90;3.03;;;8.90;98.90;;;;;;5047029;28;20453;-88
2021/05/06 06:57:16;;;;;;;7.50;3.10;;;8.90;99.10;;;;;;5044399;28;20472;-88
2021/05/06 06:59:53;;;;;;;6.07;3.00;;;8.90;99.20;;;;;;5044398;28;20461;-88
2021/05/06 07:02:31;;;;;;;7.57;2.67;;;8.90;99.80;;;;;;5044038;28;20476;-88
2021/05/06 07:04:59;;;;;;;5.23;2.90;;;8.90;99.90;;;;;;5048756;28;20464;-88
2021/05/06 07:07:33;;;;;;;6.50;3.37;;;9.00;99.90;;;;;;5064758;28;20418;-88
2021/05/06 07:10:17;;;;;;;3.43;2.23;;;9.00;99.90;;;;;;5059509;28;20506;-88
2021/05/06 07:13:12;;;;;;;7.20;2.43;;;8.90;99.40;;;;;;5048296;28;20860;-88
2021/05/06 07:15:45;;;;;;;7.07;2.90;;;9.00;99.60;;;;;;5048235;28;20536;-87
2021/05/06 07:18:27;;;;;;;3.30;2.00;;;9.00;99.00;;;;;;5060788;28;20454;-89
2021/05/06 07:20:57;;;;;;;10.00;5.43;;;9.10;99.00;;;;;;5053220;28;20544;-88
2021/05/06 07:23:25;;;;;;;4.17;1.90;;;9.20;98.80;;;;;;5060881;28;20472;-88
2021/05/06 07:25:56;;;;;;;4.17;2.70;;;9.20;98.40;;;;;;5052748;28;21254;-88
2021/05/06 07:28:29;;;;;;;7.93;3.70;;;9.30;98.20;;;;;;5061750;28;20443;-88
2021/05/06 07:31:01;;;;;;;3.37;2.90;;;9.40;98.40;;;;;;5046572;28;20528;-89
2021/05/06 07:33:31;;;;;;;5.70;2.70;;;9.50;97.70;;;;;;5046158;28;20440;-89
2021/05/06 07:36:08;;;;;;;4.80;2.73;;;9.50;97.90;;;;;;5045023;28;20468;-89
2021/05/06 07:38:36;;;;;;;6.33;3.40;;;9.60;96.90;;;;;;5045470;28;20438;-89
2021/05/06 07:41:04;;;;;;;6.87;3.33;;;9.50;96.30;;;;;;5055450;28;20492;-89
2021/05/06 07:43:43;;;;;;;5.57;3.07;;;9.50;96.80;;;;;;5049090;28;20449;-87
2021/05/06 07:46:13;;;;;;;4.97;2.43;;;9.60;96.40;;;;;;5045288;28;20461;-89
2021/05/06 07:48:55;;;;;;;6.07;3.00;;;9.90;96.50;;;;;;5052696;28;20472;-88
2021/05/06 07:52:04;;;;;;;;;;;;;;;;;;;;;
2021/05/06 07:54:40;;;;;;;6.90;3.07;;;10.10;94.40;;;;;;5041053;28;20521;-88
2021/05/06 07:57:18;;;;;;;6.10;2.83;;;10.20;94.70;;;;;;5048210;28;20460;-89
2021/05/06 08:03:48;;;;;;;6.60;2.97;;;10.30;93.70;;;;;;4905967;28;20941;-88
2021/05/06 08:06:30;;;;;;;6.67;3.13;;;10.40;94.00;;;;;;5007854;28;20477;-88
2021/05/06 08:09:14;;;;;;;3.13;2.83;;;10.30;93.20;;;;;;5045353;28;20456;-88
2021/05/06 08:12:14;;;;;;;4.37;2.90;;;10.50;93.60;;;;;;5054504;28;20436;-88
2021/05/06 08:14:53;;;;;;;6.33;2.97;;;10.70;93.60;;;;;;5022045;28;20445;-88
2021/05/06 08:20:34;;;;;;;4.43;2.03;;;10.70;92.80;;;;;;5039951;28;20495;-89
2021/05/06 08:23:21;;;;;;;10.90;3.03;;;10.80;92.30;;;;;;5061361;28;20441;-88
2021/05/06 08:28:56;;;;;;;6.70;3.27;;;10.90;92.20;;;;;;5035408;28;20457;-89
2021/05/06 08:32:04;;;;;;;9.30;2.80;;;11.00;91.90;;;;;;5072451;28;20439;-88
2021/05/06 08:34:55;;;;;;;3.50;2.60;;;11.10;91.70;;;;;;5060798;28;20441;-88
2021/05/06 08:37:51;;;;;;;3.57;2.30;;;11.10;91.80;;;;;;5057146;28;20484;-88
2021/05/06 08:43:08;;;;;;;5.97;2.70;;;11.20;90.90;;;;;;5061922;28;20448;-88
2021/05/06 08:45:37;;;;;;;5.10;3.50;;;11.30;91.20;;;;;;5068847;28;20515;-87
2021/05/06 08:48:05;;;;;;;4.13;2.80;;;11.40;91.20;;;;;;5075699;28;20526;-88
2021/05/06 08:50:31;;;;;;;4.03;2.23;;;11.40;91.10;;;;;;5068016;28;20442;-88
2021/05/06 08:53:00;;;;;;;10.03;3.23;;;11.40;90.60;;;;;;5068008;28;20443;-87
2021/05/06 08:55:26;;;;;;;5.07;2.83;;;11.40;90.70;;;;;;5058761;28;20481;-88
2021/05/06 08:57:52;;;;;;;4.93;3.47;;;11.40;90.80;;;;;;5062702;28;20442;-88
2021/05/06 09:00:22;;;;;;;5.77;2.93;;;11.50;90.90;;;;;;5064318;28;20457;-88
2021/05/06 09:02:48;;;;;;;3.90;2.47;;;11.50;90.70;;;;;;5056753;28;20472;-88
2021/05/06 09:05:15;;;;;;;5.20;2.70;;;11.60;90.60;;;;;;5053384;28;20471;-88
2021/05/06 09:07:43;;;;;;;3.53;2.73;;;11.60;90.30;;;;;;5056943;28;20461;-87
2021/05/06 09:10:12;;;;;;;5.47;2.67;;;11.60;90.10;;;;;;5057526;28;20424;-88
2021/05/06 09:12:39;;;;;;;7.30;3.50;;;11.60;90.30;;;;;;5058032;28;20440;-88
2021/05/06 09:15:13;;;;;;;6.70;3.10;;;11.60;90.40;;;;;;5064122;28;20466;-87
2021/05/06 09:17:40;;;;;;;8.33;3.10;;;11.60;90.70;;;;;;5061686;28;20539;-88
2021/05/06 09:20:12;;;;;;;5.23;2.60;;;11.60;90.80;;;;;;5052410;28;20449;-88
2021/05/06 09:22:43;;;;;;;5.27;3.33;;;11.60;90.80;;;;;;5052173;28;20503;-88
2021/05/06 09:25:30;;;;;;;4.17;2.57;;;11.60;90.70;;;;;;5069949;28;20466;-88
2021/05/06 09:28:12;;;;;;;5.67;3.10;;;11.50;90.10;;;;;;5057891;28;20441;-89
2021/05/06 09:30:49;;;;;;;4.27;2.27;;;11.50;90.70;;;;;;5052879;28;20422;-87
2021/05/06 09:33:16;;;;;;;4.50;2.60;;;11.50;91.10;;;;;;5057549;28;20729;-88
2021/05/06 09:35:44;;;;;;;5.20;3.10;;;11.50;91.00;;;;;;5060960;28;20460;-87
2021/05/06 09:38:25;;;;;;;5.80;2.97;;;11.40;90.90;;;;;;5055213;28;20441;-88
2021/05/06 09:40:53;;;;;;;6.90;3.30;;;11.50;90.70;;;;;;5069085;28;20448;-88
2021/05/06 09:43:23;;;;;;;7.37;3.63;;;11.50;90.40;;;;;;5068564;28;20499;-87
2021/05/06 09:45:50;;;;;;;7.80;4.80;;;11.50;90.70;;;;;;5074306;28;20460;-88
2021/05/06 09:48:20;;;;;;;9.23;3.53;;;11.50;91.10;;;;;;5063801;28;20493;-89
2021/05/06 09:50:54;;;;;;;4.73;2.90;;;11.50;90.70;;;;;;5057502;28;20444;-87
2021/05/06 09:53:41;;;;;;;11.53;4.60;;;11.50;91.00;;;;;;5057735;28;20475;-88
2021/05/06 09:56:12;;;;;;;8.13;3.20;;;11.50;91.00;;;;;;5059685;28;20487;-88
2021/05/06 09:58:47;;;;;;;8.27;3.33;;;11.50;91.10;;;;;;5063638;28;20441;-88
2021/05/06 10:01:13;;;;;;;7.10;3.27;;;11.50;90.90;;;;;;5054954;28;20499;-88
2021/05/06 10:03:40;;;;;;;6.10;2.70;;;11.60;90.70;;;;;;5060272;28;20425;-88
2021/05/06 10:06:14;;;;;;;7.40;2.87;;;11.50;90.80;;;;;;5068593;28;20456;-86
2021/05/06 10:08:40;;;;;;;6.93;3.00;;;11.60;91.10;;;;;;5057690;28;20429;-86
2021/05/06 10:11:09;;;;;;;8.73;3.40;;;11.50;91.10;;;;;;5054422;28;20438;-89
2021/05/06 10:13:35;;;;;;;10.63;3.87;;;11.50;90.90;;;;;;5054426;28;20524;-88
2021/05/06 10:16:02;;;;;;;5.97;2.73;;;11.60;91.20;;;;;;5075537;28;20461;-88
2021/05/06 10:18:29;;;;;;;5.33;3.17;;;11.50;91.50;;;;;;5065741;28;20468;-88
2021/05/06 10:20:55;;;;;;;8.37;2.97;;;11.50;91.80;;;;;;5055405;28;20441;-89
2021/05/06 10:23:23;;;;;;;9.63;3.47;;;11.50;92.10;;;;;;5048965;28;20539;-87
2021/05/06 10:25:53;;;;;;;3.70;3.37;;;11.40;92.40;;;;;;5051935;28;20527;-87
2021/05/06 10:28:22;;;;;;;4.80;3.00;;;11.40;92.60;;;;;;5050863;28;20449;-88
2021/05/06 10:30:48;;;;;;;5.93;2.97;;;11.50;92.60;;;;;;5047994;28;20435;-88
2021/05/06 10:33:19;;;;;;;3.80;2.80;;;11.40;92.60;;;;;;5049089;28;20510;-88
2021/05/06 10:35:46;;;;;;;9.23;3.13;;;11.40;92.70;;;;;;5048438;28;20453;-88
2021/05/06 10:38:13;;;;;;;7.30;2.60;;;11.40;93.00;;;;;;5048494;28;20425;-89
2021/05/06 10:40:41;;;;;;;5.20;2.50;;;11.40;93.10;;;;;;5051213;28;20440;-87
2021/05/06 10:43:28;;;;;;;7.23;2.90;;;11.30;93.50;;;;;;5050368;28;20623;-88
2021/05/06 10:45:56;;;;;;;3.60;2.13;;;11.10;93.70;;;;;;5047328;28;20461;-89
2021/05/06 10:48:23;;;;;;;4.90;2.97;;;10.90;94.00;;;;;;5048894;28;20451;-88
2021/05/06 10:50:51;;;;;;;3.87;2.47;;;10.90;94.70;;;;;;5044036;28;20443;-89
2021/05/06 10:53:27;;;;;;;5.77;2.83;;;10.80;94.80;;;;;;5047421;28;20451;-87
2021/05/06 10:55:56;;;;;;;6.50;2.57;;;10.70;95.00;;;;;;5047937;28;20444;-88
2021/05/06 10:58:38;;;;;;;5.50;2.70;;;10.60;95.20;;;;;;5047056;28;20465;-89
2021/05/06 11:01:24;;;;;;;6.00;2.37;;;10.70;95.10;;;;;;5048625;28;20890;-88
2021/05/06 11:04:08;;;;;;;2.27;2.00;;;10.70;95.20;;;;;;5050655;28;20480;-88
2021/05/06 11:06:44;;;;;;;3.10;1.80;;;10.70;95.10;;;;;;5045494;28;20471;-89
2021/05/06 11:10:01;;;;;;;5.47;2.73;;;10.80;95.30;;;;;;5050050;28;20810;-89
2021/05/06 11:12:36;;;;;;;4.60;2.10;;;11.00;95.30;;;;;;5044823;28;20825;-88
2021/05/06 11:15:32;;;;;;;4.00;1.97;;;10.90;94.50;;;;;;5046398;28;20792;-88
2021/05/06 11:18:01;;;;;;;2.43;1.80;;;11.00;94.40;;;;;;5048554;28;20445;-89
2021/05/06 11:20:53;;;;;;;3.00;2.03;;;11.00;93.90;;;;;;5056586;28;20481;-87
2021/05/06 11:23:31;;;;;;;3.27;2.00;;;11.00;94.30;;;;;;5047434;28;20448;-87
2021/05/06 11:26:09;;;;;;;4.90;1.90;;;11.00;93.80;;;;;;5048494;28;20461;-89
2021/05/06 11:28:44;;;;;;;3.10;2.23;;;11.10;94.20;;;;;;5055409;28;20439;-86
2021/05/06 11:31:12;;;;;;;2.57;1.90;;;11.30;94.40;;;;;;5060950;28;20425;-86
2021/05/06 11:33:38;;;;;;;3.20;2.17;;;11.40;95.00;;;;;;5059219;28;20452;-85
2021/05/06 11:36:17;;;;;;;3.80;1.63;;;11.40;94.60;;;;;;5073716;28;20478;-86
2021/05/06 11:38:50;;;;;;;2.80;1.80;;;11.30;93.50;;;;;;5056016;28;20446;-88
2021/05/06 11:41:18;;;;;;;5.50;1.90;;;11.20;93.40;;;;;;5053807;28;20480;-87
2021/05/06 11:43:47;;;;;;;2.20;1.50;;;11.30;93.70;;;;;;5051196;28;20445;-87
2021/05/06 11:46:15;;;;;;;2.90;1.60;;;11.30;92.90;;;;;;5048107;28;20471;-87
2021/05/06 11:48:44;;;;;;;6.60;2.10;;;11.30;92.50;;;;;;5050044;28;20918;-88
2021/05/06 11:51:11;;;;;;;1.93;1.73;;;11.30;93.30;;;;;;5050035;28;20449;-87
2021/05/06 11:53:39;;;;;;;2.00;1.70;;;11.30;92.80;;;;;;5054050;28;20971;-87
2021/05/06 11:56:12;;;;;;;2.20;1.60;;;11.40;93.10;;;;;;5062843;28;20437;-87
2021/05/06 11:58:39;;;;;;;3.00;1.60;;;11.50;93.00;;;;;;5057696;28;20559;-88
2021/05/06 12:01:06;;;;;;;2.03;1.57;;;11.60;93.10;;;;;;5060041;28;20433;-87
2021/05/06 12:03:37;;;;;;;3.23;1.40;;;11.70;92.80;;;;;;5054507;28;20470;-87
2021/05/06 12:06:05;;;;;;;1.77;1.27;;;11.50;92.40;;;;;;5049878;28;20494;-87
2021/05/06 12:08:33;;;;;;;2.30;1.67;;;11.40;92.10;;;;;;5053101;28;20437;-88
2021/05/06 12:11:02;;;;;;;5.20;1.70;;;11.40;92.20;;;;;;5055169;28;20450;-87
2021/05/06 12:13:31;;;;;;;4.20;1.50;;;11.30;92.60;;;;;;5064766;28;20452;-86
2021/05/06 12:16:11;;;;;;;1.10;1.00;;;11.30;92.70;;;;;;5057629;28;20460;-87
2021/05/06 12:18:38;;;;;;;1.87;1.23;;;11.30;91.70;;;;;;5071004;28;20433;-86
2021/05/06 12:21:06;;;;;;;1.73;1.20;;;11.30;91.80;;;;;;5053134;28;20445;-87
2021/05/06 12:23:34;;;;;;;3.13;0.80;;;11.30;91.50;;;;;;5049290;28;20871;-90
2021/05/06 12:26:01;;;;;;;1.07;0.97;;;11.30;91.60;;;;;;5040930;28;21028;-89
2021/05/06 12:28:39;;;;;;;1.50;1.23;;;11.30;91.80;;;;;;5046947;28;20798;-89
2021/05/06 12:34:35;;;;;;;3.13;1.77;;;11.50;91.70;;;;;;5009292;28;20421;-89
2021/05/06 12:41:10;;;;;;;2.57;1.63;;;11.70;92.40;;;;;;4993374;28;20457;-89
2021/05/06 12:44:26;;;;;;;2.83;1.73;;;11.70;92.70;;;;;;5039485;28;20507;-89
2021/05/06 12:53:36;;;;;;;1.87;1.57;;;11.50;95.00;;;;;;5048230;28;20821;-89
2021/05/06 12:56:39;;;;;;;1.93;1.30;;;11.40;96.00;;;;;;5040272;28;20478;-88
2021/05/06 12:59:37;;;;;;;2.17;1.97;;;11.30;96.10;;;;;;5048282;28;20445;-89
2021/05/06 13:02:19;;;;;;;2.47;2.27;;;11.20;95.40;;;;;;5056854;28;20472;-88
2021/05/06 13:04:54;;;;;;;1.40;1.30;;;11.30;96.80;;;;;;5054068;28;20483;-89
2021/05/06 13:07:29;;;;;;;1.70;1.47;;;11.20;96.50;;;;;;4910340;22;3667152;-89
2021/05/06 13:10:40;;;;;;;2.43;1.50;;;11.30;96.70;;;;;;5054666;28;20198;-88
2021/05/06 13:13:36;;;;;;;3.80;1.63;;;11.30;97.90;;;;;;5052267;28;20455;-89
2021/05/06 13:16:21;;;;;;;1.50;1.40;;;11.20;98.30;;;;;;5079202;22;20515;-90
2021/05/06 13:19:23;;;;;;;1.93;1.50;;;11.10;98.60;;;;;;5061598;28;20440;-89
2021/05/06 13:21:56;;;;;;;2.80;2.40;;;11.10;99.30;;;;;;5037030;28;20474;-90
2021/05/06 13:31:28;;;;;;;17.43;2.70;;;10.80;99.90;;;;;;5022324;28;20433;-89
2021/05/06 13:34:20;;;;;;;2.20;1.93;;;10.70;99.90;;;;;;5036494;28;20518;-89
2021/05/06 13:40:20;;;;;;;3.80;2.60;;;10.50;99.90;;;;;;5017193;28;20474;-88
2021/05/06 13:46:03;;;;;;;3.77;2.20;;;10.30;99.90;;;;;;5034364;28;20557;-90
2021/05/06 14:14:48;;;;;;;5.50;3.50;;;10.20;99.90;;;;;;5050093;28;20452;-91
2021/05/06 14:17:58;;;;;;;;;;;;;;;;;;;;;
2021/05/06 14:38:36;;;;;;;4.70;2.90;;;10.10;99.90;;;;;;4891223;29;20456;-91
2021/05/06 14:48:52;;;;;;;2.33;2.13;;;9.80;99.90;;;;;;4837992;29;20525;-91
2021/05/06 14:58:05;;;;;;;2.00;1.80;;;9.50;99.90;;;;;;5146405;22;20467;-90
2021/05/06 15:01:18;;;;;;;2.83;1.30;;;9.60;99.90;;;;;;5004202;28;21039;-91
2021/05/06 15:06:49;;;;;;;2.53;1.40;;;9.60;99.90;;;;;;5321932;22;20493;-90
2021/05/06 15:09:52;;;;;;;3.60;1.37;;;9.60;99.90;;;;;;5071926;28;20448;-89
2021/05/06 15:12:23;;;;;;;2.33;1.60;;;9.70;99.90;;;;;;5053142;28;20453;-90
2021/05/06 15:21:37;;;;;;;2.43;1.80;;;9.80;99.90;;;;;;5052736;28;20496;-90
2021/05/06 15:24:22;;;;;;;2.23;2.00;;;9.80;99.90;;;;;;5066281;28;20457;-90
2021/05/06 15:34:43;;;;;;;4.23;1.60;;;9.70;99.90;;;;;;4906177;29;20444;-92
2021/05/06 15:43:48;;;;;;;1.90;1.57;;;9.80;99.90;;;;;;4851666;28;20499;-89
2021/05/06 15:46:18;;;;;;;7.17;2.50;;;9.70;99.90;;;;;;5051528;28;20464;-89
2021/05/06 15:48:51;;;;;;;2.57;2.30;;;9.80;99.90;;;;;;5050889;28;20429;-89
2021/05/06 15:51:36;;;;;;;4.97;3.33;;;9.80;99.90;;;;;;5054616;28;20982;-89
2021/05/06 15:56:59;;;;;;;4.57;3.23;;;10.10;99.90;;;;;;5053351;28;20448;-86
2021/05/06 15:59:26;;;;;;;4.13;2.70;;;10.00;99.90;;;;;;5065239;28;20486;-87
2021/05/06 16:01:53;;;;;;;6.90;3.00;;;9.90;99.90;;;;;;5055981;28;20488;-88
2021/05/06 16:04:23;;;;;;;3.20;2.57;;;9.90;99.90;;;;;;5056919;28;20456;-86
2021/05/06 16:06:51;;;;;;;3.80;2.40;;;10.00;99.90;;;;;;5070869;28;20750;-89
2021/05/06 16:09:27;;;;;;;3.20;2.70;;;10.00;99.90;;;;;;5058056;28;20488;-89
2021/05/06 16:11:54;;;;;;;3.77;2.47;;;10.10;99.90;;;;;;5057032;28;20535;-93
2021/05/06 16:14:21;;;;;;;5.37;3.03;;;10.10;99.90;;;;;;5054422;28;20468;-88
2021/05/06 16:16:50;;;;;;;12.17;11.23;;;10.10;99.90;;;;;;5056027;28;20467;-90
2021/05/06 16:22:36;;;;;;;3.17;2.70;;;10.20;99.90;;;;;;5000509;28;20476;-90
2021/05/06 16:25:39;;;;;;;5.00;2.93;;;10.20;99.90;;;;;;5070297;28;20447;-90
2021/05/06 16:28:35;;;;;;;4.37;3.43;;;10.20;99.90;;;;;;5068387;28;20420;-90
2021/05/06 16:31:03;;;;;;;4.27;2.70;;;10.20;99.90;;;;;;5035845;28;20459;-90
2021/05/06 16:33:54;;;;;;;2.57;2.37;;;10.40;99.90;;;;;;5064395;28;20458;-90
2021/05/06 16:36:39;;;;;;;4.93;4.10;;;10.60;99.90;;;;;;5067564;28;20465;-89
2021/05/06 16:42:33;;;;;;;3.03;2.50;;;10.60;99.90;;;;;;5069692;28;20571;-89
2021/05/06 16:45:14;;;;;;;4.73;2.30;;;10.40;99.90;;;;;;5057240;28;20447;-90
2021/05/06 16:47:43;;;;;;;3.37;3.07;;;10.20;99.90;;;;;;5064607;28;20439;-89
2021/05/06 16:50:27;;;;;;;2.80;2.27;;;10.20;99.90;;;;;;5070103;28;20425;-90
2021/05/06 16:53:38;;;;;;;4.23;2.40;;;10.30;99.90;;;;;;5059206;28;20440;-90
2021/05/06 16:56:05;;;;;;;3.30;2.90;;;10.30;99.90;;;;;;5050093;28;20475;-89
2021/05/06 16:58:31;;;;;;;4.23;3.07;;;10.30;99.90;;;;;;5059691;28;20437;-88
2021/05/06 17:00:57;;;;;;;4.50;4.03;;;10.30;99.90;;;;;;5091913;22;20551;-84
2021/05/06 17:03:23;;;;;;;4.00;3.10;;;10.30;99.90;;;;;;5062474;28;20511;-86
2021/05/06 17:05:50;;;;;;;4.00;2.63;;;10.30;99.90;;;;;;5072755;28;20441;-85
2021/05/06 17:08:17;;;;;;;4.07;3.07;;;10.30;99.90;;;;;;5062076;28;20454;-86
2021/05/06 17:10:43;;;;;;;2.97;2.60;;;10.30;99.90;;;;;;5061183;28;20468;-86
2021/05/06 17:13:10;;;;;;;2.80;2.23;;;10.20;99.90;;;;;;5060516;28;20498;-86
2021/05/06 17:15:37;;;;;;;2.33;2.13;;;10.20;99.90;;;;;;5063124;28;20447;-85
2021/05/06 17:18:03;;;;;;;8.70;2.37;;;10.10;99.90;;;;;;5070630;28;20456;-86
2021/05/06 17:20:31;;;;;;;5.90;2.60;;;10.10;99.90;;;;;;5045284;28;20479;-86
2021/05/06 17:22:58;;;;;;;4.10;3.07;;;10.00;99.90;;;;;;5041830;28;20476;-86
2021/05/06 17:25:25;;;;;;;3.80;2.10;;;9.90;99.90;;;;;;5041007;28;20445;-86
2021/05/06 17:27:51;;;;;;;3.00;2.10;;;9.90;99.90;;;;;;5046997;28;20445;-86
2021/05/06 17:30:18;;;;;;;2.37;2.13;;;9.90;99.90;;;;;;5057436;28;20475;-85
2021/05/06 17:32:46;;;;;;;4.63;2.50;;;9.90;99.90;;;;;;5041903;28;20441;-86
2021/05/06 17:35:14;;;;;;;3.40;2.30;;;9.90;99.90;;;;;;5041787;28;20961;-87
2021/05/06 17:37:40;;;;;;;2.43;2.13;;;10.00;99.90;;;;;;5060745;28;20869;-87
2021/05/06 17:40:10;;;;;;;2.30;2.10;;;10.00;99.90;;;;;;5068410;28;20448;-86
2021/05/06 17:42:37;;;;;;;4.27;2.53;;;10.00;99.90;;;;;;5069228;28;20480;-87
2021/05/06 17:45:04;;;;;;;4.10;2.90;;;10.00;99.90;;;;;;5065756;28;20455;-87
2021/05/06 17:47:31;;;;;;;3.90;2.70;;;10.10;99.90;;;;;;5043402;28;20464;-86
2021/05/06 17:49:57;;;;;;;4.60;3.43;;;10.00;99.90;;;;;;5042790;28;20472;-85
2021/05/06 17:52:23;;;;;;;5.27;4.00;;;10.00;99.90;;;;;;5042720;28;20536;-85
2021/05/06 17:54:49;;;;;;;3.83;3.43;;;10.00;99.90;;;;;;5043313;28;20845;-87
2021/05/06 17:57:16;;;;;;;6.43;3.43;;;10.00;99.90;;;;;;5051045;28;20472;-85
2021/05/06 17:59:43;;;;;;;7.40;4.33;;;10.10;99.90;;;;;;5058456;28;20507;-87
2021/05/06 18:02:09;;;;;;;5.40;4.20;;;10.00;99.90;;;;;;5055346;28;20479;-85
2021/05/06 18:04:35;;;;;;;4.80;4.40;;;10.00;99.90;;;;;;5046291;28;20436;-86
2021/05/06 18:07:01;;;;;;;5.90;4.80;;;10.00;99.90;;;;;;5043987;28;20448;-86
2021/05/06 18:09:29;;;;;;;4.63;4.17;;;9.90;99.90;;;;;;5040879;28;20476;-87
2021/05/06 18:12:07;;;;;;;6.23;4.80;;;10.00;99.90;;;;;;5040298;28;20488;-87
2021/05/06 18:14:34;;;;;;;4.53;3.40;;;10.00;99.90;;;;;;5058419;28;20543;-86
2021/05/06 18:17:01;;;;;;;3.97;3.57;;;10.00;99.90;;;;;;5061368;28;20450;-87
2021/05/06 18:19:27;;;;;;;4.70;3.27;;;10.10;99.90;;;;;;5062073;28;20995;-86
2021/05/06 18:21:53;;;;;;;4.87;3.90;;;10.10;99.90;;;;;;5073056;28;20464;-87